createdAt,value
2018-08-31T00:01:48.684Z,92.40
2018-08-31T00:06:47.359Z,92.03
2018-08-31T00:09:42.329Z,93.21
2018-08-31T00:12:37.801Z,94.03
2018-08-31T00:15:08.712Z,93.76
2018-08-31T00:17:41.313Z,93.87
2018-08-31T00:20:13.276Z,93.48
2018-08-31T00:22:43.826Z,94.00
2018-08-31T00:26:30.839Z,93.07
2018-08-31T00:29:51.130Z,93.18
2018-08-31T00:34:45.450Z,94.53
2018-08-31T00:37:34.355Z,94.70
2018-08-31T00:40:48.064Z,94.97
2018-08-31T00:43:37.724Z,93.65
2018-08-31T00:46:08.046Z,92.67
2018-08-31T00:48:38.516Z,91.81
2018-08-31T00:51:09.071Z,92.05
2018-08-31T00:53:39.514Z,92.85
2018-08-31T00:56:09.999Z,93.21
2018-08-31T00:58:40.567Z,93.97
2018-08-31T01:01:11.000Z,94.07
2018-08-31T01:03:41.575Z,94.32
2018-08-31T01:06:12.093Z,92.51
2018-08-31T01:08:42.553Z,91.35
2018-08-31T01:11:13.500Z,90.92
2018-08-31T01:13:43.924Z,91.41
2018-08-31T01:16:14.353Z,92.39
2018-08-31T01:18:44.758Z,92.26
2018-08-31T01:21:16.041Z,93.17
2018-08-31T01:23:47.009Z,93.61
2018-08-31T01:26:17.533Z,93.98
2018-08-31T01:28:48.114Z,94.42
2018-08-31T01:31:18.578Z,94.78
2018-08-31T01:33:48.965Z,95.79
2018-08-31T01:36:19.210Z,96.79
2018-08-31T01:38:49.563Z,96.31
2018-08-31T01:41:20.019Z,95.91
2018-08-31T01:43:50.575Z,95.46
2018-08-31T01:46:21.122Z,94.99
2018-08-31T01:48:51.655Z,95.27
2018-08-31T01:51:22.488Z,95.46
2018-08-31T01:53:53.388Z,96.66
2018-08-31T01:56:25.106Z,97.83
2018-08-31T01:58:55.554Z,97.56
2018-08-31T02:01:26.256Z,97.87
2018-08-31T02:03:59.905Z,97.32
2018-08-31T02:06:30.369Z,96.67
2018-08-31T02:09:05.753Z,96.76
2018-08-31T02:11:36.382Z,96.55
2018-08-31T02:14:07.479Z,96.62
2018-08-31T02:16:38.354Z,97.03
2018-08-31T02:19:08.810Z,97.97
2018-08-31T02:21:39.498Z,98.46
2018-08-31T02:24:09.978Z,99.34
2018-08-31T02:26:40.475Z,99.44
2018-08-31T02:29:11.034Z,99.43
2018-08-31T02:31:41.701Z,99.28
2018-08-31T02:34:12.800Z,99.71
2018-08-31T02:36:43.139Z,97.71
2018-08-31T02:39:13.710Z,96.66
2018-08-31T02:41:44.121Z,95.28
2018-08-31T02:44:14.623Z,94.82
2018-08-31T02:46:44.946Z,93.24
2018-08-31T02:49:15.219Z,92.55
2018-08-31T02:51:45.916Z,92.23
2018-08-31T02:54:16.389Z,91.97
2018-08-31T02:56:46.839Z,91.00
2018-08-31T02:59:17.367Z,90.91
2018-08-31T03:01:48.711Z,90.45
2018-08-31T03:04:19.750Z,90.41
2018-08-31T03:06:50.317Z,90.62
2018-08-31T03:09:20.804Z,91.66
2018-08-31T03:11:51.276Z,92.77
2018-08-31T03:14:21.874Z,92.82
2018-08-31T03:16:52.359Z,91.37
2018-08-31T03:19:22.820Z,94.37
2018-08-31T03:21:53.395Z,93.43
2018-08-31T03:24:23.880Z,94.20
2018-08-31T03:26:54.224Z,94.90
2018-08-31T03:29:24.624Z,94.50
2018-08-31T03:31:55.110Z,93.63
2018-08-31T03:34:25.615Z,93.65
2018-08-31T03:36:56.077Z,92.93
2018-08-31T03:39:26.447Z,92.72
2018-08-31T03:41:56.686Z,92.91
2018-08-31T03:44:27.281Z,93.22
2018-08-31T03:46:57.812Z,93.69
2018-08-31T03:49:28.521Z,94.18
2018-08-31T03:51:59.155Z,94.50
2018-08-31T03:54:30.463Z,93.37
2018-08-31T03:57:01.717Z,93.56
2018-08-31T03:59:32.254Z,94.09
2018-08-31T04:02:03.098Z,95.04
2018-08-31T04:04:33.434Z,95.60
2018-08-31T04:07:03.961Z,95.72
2018-08-31T04:09:34.399Z,96.92
2018-08-31T04:12:05.210Z,97.52
2018-08-31T04:14:35.733Z,96.90
2018-08-31T04:17:06.179Z,97.56
2018-08-31T04:19:36.592Z,97.07
2018-08-31T04:22:07.163Z,97.18
2018-08-31T04:24:37.679Z,97.83
2018-08-31T04:27:08.235Z,97.81
2018-08-31T04:29:38.833Z,97.62
2018-08-31T04:32:09.335Z,97.74
2018-08-31T04:34:39.941Z,98.34
2018-08-31T04:37:10.609Z,98.60
2018-08-31T04:39:41.316Z,98.56
2018-08-31T04:42:11.796Z,98.21
2018-08-31T04:44:42.353Z,98.19
2018-08-31T04:47:13.028Z,98.16
2018-08-31T04:49:43.518Z,98.66
2018-08-31T04:52:14.091Z,98.73
2018-08-31T04:54:44.625Z,98.21
2018-08-31T04:57:15.067Z,98.55
2018-08-31T04:59:45.605Z,98.50
2018-08-31T05:02:16.596Z,97.71
2018-08-31T05:04:47.924Z,97.64
2018-08-31T05:07:19.839Z,96.59
2018-08-31T05:09:50.386Z,96.88
2018-08-31T05:12:21.052Z,96.19
2018-08-31T05:14:51.531Z,96.19
2018-08-31T05:17:21.915Z,95.37
2018-08-31T05:19:52.464Z,95.70
2018-08-31T05:22:23.183Z,95.07
2018-08-31T05:24:53.693Z,95.08
2018-08-31T05:27:24.141Z,95.24
2018-08-31T05:29:54.677Z,95.58
2018-08-31T05:32:25.211Z,94.90
2018-08-31T05:34:55.617Z,94.89
2018-08-31T05:37:26.040Z,95.53
2018-08-31T05:39:56.565Z,94.54
2018-08-31T05:42:27.122Z,94.80
2018-08-31T05:44:57.916Z,93.32
2018-08-31T05:47:28.694Z,93.07
2018-08-31T05:49:59.195Z,93.03
2018-08-31T05:52:30.011Z,92.66
2018-08-31T05:55:00.490Z,91.66
2018-08-31T05:57:31.164Z,91.56
2018-08-31T06:00:01.686Z,89.50
2018-08-31T06:02:32.204Z,88.26
2018-08-31T06:05:02.698Z,86.93
2018-08-31T06:07:33.474Z,87.70
2018-08-31T06:10:05.271Z,87.39
2018-08-31T06:12:35.836Z,88.22
2018-08-31T06:15:06.834Z,85.41
2018-08-31T06:17:37.805Z,81.49
2018-08-31T06:20:09.954Z,82.46
2018-08-31T06:22:40.461Z,82.48
2018-08-31T06:25:11.280Z,83.13
2018-08-31T06:27:41.986Z,82.74
2018-08-31T06:30:12.450Z,82.96
2018-08-31T06:32:42.918Z,80.52
2018-08-31T06:35:14.064Z,79.13
2018-08-31T06:37:44.550Z,75.53
2018-08-31T06:40:15.226Z,73.74
2018-08-31T06:42:45.905Z,71.38
2018-08-31T06:45:16.629Z,67.63
2018-08-31T06:47:48.237Z,64.84
2018-08-31T06:50:18.662Z,66.40
2018-08-31T06:52:49.267Z,67.55
2018-08-31T06:55:21.379Z,70.13
2018-08-31T06:57:52.243Z,70.75
2018-08-31T07:00:23.072Z,70.44
2018-08-31T07:02:56.092Z,71.19
2018-08-31T07:05:26.673Z,73.02
2018-08-31T07:07:57.475Z,74.03
2018-08-31T07:10:28.254Z,73.31
2018-08-31T07:12:58.944Z,74.96
2018-08-31T07:15:29.609Z,74.85
2018-08-31T07:18:00.570Z,75.90
2018-08-31T07:20:31.911Z,74.00
2018-08-31T07:23:02.581Z,72.85
2018-08-31T07:25:33.327Z,73.01
2018-08-31T07:28:03.851Z,71.76
2018-08-31T07:30:35.022Z,71.20
2018-08-31T07:33:05.767Z,74.18
2018-08-31T07:35:37.642Z,68.64
2018-08-31T07:38:08.281Z,71.07
2018-08-31T07:40:39.015Z,67.58
2018-08-31T07:43:09.563Z,65.30
2018-08-31T07:45:40.190Z,64.36
2018-08-31T07:48:10.818Z,63.04
2018-08-31T07:50:41.360Z,62.08
2018-08-31T07:53:12.104Z,56.95
2018-08-31T07:55:42.866Z,53.67
2018-08-31T07:58:13.545Z,52.96
2018-08-31T08:00:44.645Z,51.23
2018-08-31T08:03:15.066Z,50.60
2018-08-31T08:05:46.490Z,49.27
2018-08-31T08:08:17.196Z,48.19
2018-08-31T08:10:49.935Z,50.97
2018-08-31T08:13:20.836Z,52.00
2018-08-31T08:15:52.623Z,51.16
2018-08-31T08:18:23.288Z,55.74
2018-08-31T08:20:54.051Z,52.12
2018-08-31T08:23:24.865Z,50.74
2018-08-31T08:25:56.729Z,48.28
2018-08-31T08:28:27.344Z,57.20
2018-08-31T08:30:58.298Z,51.52
2018-08-31T08:33:29.122Z,48.71
2018-08-31T08:35:59.919Z,47.35
2018-08-31T08:38:30.905Z,48.85
2018-08-31T08:41:01.735Z,53.79
2018-08-31T08:43:32.515Z,53.47
2018-08-31T08:46:04.817Z,56.77
2018-08-31T08:48:35.765Z,54.82
2018-08-31T08:51:06.701Z,53.70
2018-08-31T08:53:37.362Z,51.22
2018-08-31T08:56:08.575Z,56.51
2018-08-31T08:58:39.587Z,54.75
2018-08-31T09:01:10.364Z,55.54
2018-08-31T09:03:41.130Z,50.34
2018-08-31T09:06:12.824Z,46.85
2018-08-31T09:08:44.215Z,43.98
2018-08-31T09:11:14.865Z,45.70
2018-08-31T09:13:45.994Z,44.65
2018-08-31T09:16:16.865Z,42.29
2018-08-31T09:18:47.446Z,41.50
2018-08-31T09:21:17.911Z,40.90
2018-08-31T09:23:48.699Z,40.60
2018-08-31T09:26:19.249Z,43.04
2018-08-31T09:28:49.904Z,42.69
2018-08-31T09:31:20.857Z,41.97
2018-08-31T09:33:51.591Z,44.99
2018-08-31T09:36:22.010Z,47.24
2018-08-31T09:38:52.573Z,46.06
2018-08-31T09:41:23.296Z,45.89
2018-08-31T09:43:54.318Z,46.86
2018-08-31T09:46:25.752Z,43.71
2018-08-31T09:48:57.445Z,45.90
2018-08-31T09:51:28.734Z,42.43
2018-08-31T09:53:59.734Z,42.50
2018-08-31T09:56:30.385Z,43.43
2018-08-31T09:59:01.335Z,44.58
2018-08-31T10:01:36.905Z,43.27
2018-08-31T10:04:08.050Z,44.50
2018-08-31T10:06:39.240Z,43.92
2018-08-31T10:09:11.136Z,44.14
2018-08-31T10:11:41.923Z,42.93
2018-08-31T10:14:12.527Z,43.24
2018-08-31T10:16:43.283Z,42.19
2018-08-31T10:19:14.707Z,44.13
2018-08-31T10:21:46.001Z,44.33
2018-08-31T10:24:16.486Z,44.21
2018-08-31T10:26:47.223Z,46.50
2018-08-31T10:29:17.848Z,48.43
2018-08-31T10:31:48.385Z,49.43
2018-08-31T10:34:19.035Z,49.68
2018-08-31T10:36:50.086Z,50.04
2018-08-31T10:39:20.588Z,50.33
2018-08-31T10:41:51.294Z,51.77
2018-08-31T10:44:21.954Z,49.16
2018-08-31T10:46:52.666Z,48.90
2018-08-31T10:49:23.144Z,43.63
2018-08-31T10:51:54.597Z,41.46
2018-08-31T10:54:25.257Z,38.54
2018-08-31T10:56:55.925Z,41.94
2018-08-31T10:59:27.656Z,47.08
2018-08-31T11:01:58.245Z,42.01
2018-08-31T11:04:28.908Z,41.94
2018-08-31T11:06:59.455Z,42.33
2018-08-31T11:09:30.113Z,42.06
2018-08-31T11:12:00.779Z,44.11
2018-08-31T11:14:31.415Z,40.69
2018-08-31T11:17:01.965Z,39.32
2018-08-31T11:19:33.432Z,38.02
2018-08-31T11:22:04.159Z,40.75
2018-08-31T11:24:35.841Z,38.07
2018-08-31T11:27:06.398Z,36.20
2018-08-31T11:29:37.102Z,31.51
2018-08-31T11:32:09.084Z,38.32
2018-08-31T11:34:41.115Z,37.57
2018-08-31T11:37:12.760Z,36.22
2018-08-31T11:39:43.289Z,37.90
2018-08-31T11:42:13.712Z,35.83
2018-08-31T11:44:44.176Z,34.88
2018-08-31T11:47:15.036Z,33.44
2018-08-31T11:49:45.631Z,31.33
2018-08-31T11:52:16.996Z,31.53
2018-08-31T11:54:47.859Z,34.04
2018-08-31T11:57:19.219Z,34.79
2018-08-31T11:59:50.352Z,33.29
2018-08-31T12:02:21.372Z,33.67
2018-08-31T12:04:51.968Z,33.22
2018-08-31T12:07:22.608Z,32.77
2018-08-31T12:09:53.133Z,33.02
2018-08-31T12:12:23.942Z,35.50
2018-08-31T12:14:54.901Z,35.44
2018-08-31T12:17:25.670Z,35.12
2018-08-31T12:19:56.678Z,36.28
2018-08-31T12:22:27.579Z,34.57
2018-08-31T12:24:58.565Z,34.07
2018-08-31T12:27:29.765Z,34.65
2018-08-31T12:30:00.807Z,34.43
2018-08-31T12:32:32.083Z,34.34
2018-08-31T12:35:04.056Z,34.53
2018-08-31T12:37:40.817Z,34.41
2018-08-31T12:40:12.757Z,35.95
2018-08-31T12:42:43.707Z,36.31
2018-08-31T12:45:14.498Z,36.39
2018-08-31T12:47:47.264Z,38.23
2018-08-31T12:50:18.223Z,38.64
2018-08-31T12:52:48.965Z,38.52
2018-08-31T12:55:20.240Z,36.96
2018-08-31T12:57:50.882Z,36.96
2018-08-31T13:00:21.885Z,34.31
2018-08-31T13:02:52.682Z,35.22
2018-08-31T13:05:23.351Z,34.31
2018-08-31T13:07:54.043Z,35.68
2018-08-31T13:10:24.811Z,34.92
2018-08-31T13:12:58.029Z,33.79
2018-08-31T13:15:31.071Z,32.77
2018-08-31T13:18:01.891Z,33.06
2018-08-31T13:20:34.174Z,34.00
2018-08-31T13:23:05.601Z,34.07
2018-08-31T13:25:36.242Z,36.57
2018-08-31T13:28:06.960Z,37.52
2018-08-31T13:30:37.608Z,38.48
2018-08-31T13:33:09.022Z,39.16
2018-08-31T13:35:39.797Z,39.80
2018-08-31T13:38:10.688Z,41.68
2018-08-31T13:40:41.453Z,41.71
2018-08-31T13:43:13.235Z,39.83
2018-08-31T13:45:44.296Z,40.22
2018-08-31T13:48:15.255Z,38.51
2018-08-31T13:50:46.274Z,39.59
2018-08-31T13:53:17.285Z,41.27
2018-08-31T13:55:48.047Z,39.94
2018-08-31T13:58:18.830Z,37.88
2018-08-31T14:00:49.624Z,39.89
2018-08-31T14:03:20.441Z,40.22
2018-08-31T14:05:51.284Z,40.03
2018-08-31T14:08:22.064Z,38.77
2018-08-31T14:10:52.892Z,39.92
2018-08-31T14:13:24.160Z,39.46
2018-08-31T14:15:55.402Z,41.77
2018-08-31T14:18:28.324Z,42.82
2018-08-31T14:20:59.393Z,42.21
2018-08-31T14:23:30.238Z,42.60
2018-08-31T14:26:02.132Z,43.47
2018-08-31T14:28:33.296Z,44.42
2018-08-31T14:31:04.279Z,43.63
2018-08-31T14:34:22.809Z,44.31
2018-08-31T14:36:54.019Z,46.38
2018-08-31T14:39:28.139Z,48.54
2018-08-31T14:41:59.003Z,47.92
2018-08-31T14:44:30.127Z,48.13
2018-08-31T14:47:00.949Z,48.15
2018-08-31T14:49:33.970Z,46.99
2018-08-31T14:52:04.608Z,48.15
2018-08-31T14:54:36.385Z,49.01
2018-08-31T14:57:07.166Z,48.09
2018-08-31T14:59:37.921Z,49.19
2018-08-31T15:02:11.741Z,48.47
2018-08-31T15:04:44.241Z,48.31
2018-08-31T15:07:17.058Z,48.63
2018-08-31T15:09:50.478Z,47.55
2018-08-31T15:12:24.901Z,46.16
2018-08-31T15:14:57.000Z,47.87
2018-08-31T15:17:31.555Z,47.71
2018-08-31T15:20:03.487Z,50.38
2018-08-31T15:22:37.296Z,49.81
2018-08-31T15:25:10.053Z,49.83
2018-08-31T15:27:43.092Z,50.12
2018-08-31T15:30:21.263Z,50.27
2018-08-31T15:33:01.412Z,50.64
2018-08-31T15:35:34.190Z,51.11
2018-08-31T15:38:07.292Z,51.46
2018-08-31T15:40:40.522Z,51.89
2018-08-31T15:43:12.670Z,52.36
2018-08-31T15:45:45.873Z,52.42
2018-08-31T15:48:17.926Z,50.93
2018-08-31T15:50:49.623Z,50.85
2018-08-31T15:53:24.810Z,49.98
2018-08-31T15:55:56.547Z,50.01
2018-08-31T15:58:27.525Z,50.06
2018-08-31T16:00:59.585Z,50.17
2018-08-31T16:03:30.877Z,51.38
2018-08-31T16:06:01.941Z,51.61
2018-08-31T16:08:33.328Z,52.89
2018-08-31T16:11:03.846Z,53.86
2018-08-31T16:13:34.743Z,53.87
2018-08-31T16:16:05.519Z,54.30
2018-08-31T16:18:36.212Z,53.60
2018-08-31T16:21:07.800Z,53.23
2018-08-31T16:23:38.820Z,53.76
2018-08-31T16:26:09.398Z,54.11
2018-08-31T16:28:40.413Z,53.95
2018-08-31T16:31:11.396Z,53.56
2018-08-31T16:33:43.625Z,53.28
2018-08-31T16:36:14.212Z,52.57
2018-08-31T16:38:44.820Z,53.43
2018-08-31T16:41:15.864Z,52.88
2018-08-31T16:43:46.490Z,54.02
2018-08-31T16:46:17.030Z,55.02
2018-08-31T16:48:47.977Z,54.67
2018-08-31T16:51:19.434Z,54.03
2018-08-31T16:53:50.628Z,54.39
2018-08-31T16:56:22.197Z,54.43
2018-08-31T16:58:54.154Z,53.85
2018-08-31T17:01:24.881Z,53.93
2018-08-31T17:03:56.372Z,53.16
2018-08-31T17:06:27.310Z,53.38
2018-08-31T17:08:59.311Z,51.88
2018-08-31T17:11:30.018Z,52.22
2018-08-31T17:14:00.740Z,52.58
2018-08-31T17:16:32.223Z,52.74
2018-08-31T17:19:04.658Z,53.42
2018-08-31T17:21:35.495Z,53.76
2018-08-31T17:24:06.873Z,54.45
2018-08-31T17:26:45.846Z,54.73
2018-08-31T17:29:21.923Z,54.70
2018-08-31T17:31:58.472Z,55.16
2018-08-31T17:34:36.319Z,55.00
2018-08-31T17:37:13.009Z,54.45
2018-08-31T17:39:44.860Z,55.41
2018-08-31T17:42:15.839Z,55.98
2018-08-31T17:44:46.734Z,56.60
2018-08-31T17:47:17.521Z,56.93
2018-08-31T17:49:48.812Z,56.78
2018-08-31T17:52:21.526Z,57.72
2018-08-31T17:54:53.440Z,58.68
2018-08-31T17:57:24.749Z,59.38
2018-08-31T17:59:56.146Z,60.30
2018-08-31T18:02:27.741Z,59.93
2018-08-31T18:04:59.281Z,59.95
2018-08-31T18:07:31.058Z,60.14
2018-08-31T18:10:03.312Z,60.52
2018-08-31T18:12:35.699Z,61.70
2018-08-31T18:15:07.686Z,62.85
2018-08-31T18:17:39.661Z,63.82
2018-08-31T18:20:12.125Z,64.56
2018-08-31T18:22:44.188Z,65.40
2018-08-31T18:25:16.765Z,65.70
2018-08-31T18:27:48.581Z,65.85
2018-08-31T18:30:21.181Z,65.67
2018-08-31T18:32:53.352Z,64.85
2018-08-31T18:35:25.348Z,64.88
2018-08-31T18:37:57.923Z,66.09
2018-08-31T18:40:30.155Z,68.06
2018-08-31T18:43:01.970Z,68.45
2018-08-31T18:45:33.928Z,69.45
2018-08-31T18:48:06.889Z,69.00
2018-08-31T18:50:39.114Z,69.70
2018-08-31T18:53:11.308Z,69.96
2018-08-31T18:55:43.823Z,69.71
2018-08-31T18:58:15.886Z,69.14
2018-08-31T19:00:47.706Z,69.33
2018-08-31T19:03:20.329Z,69.69
2018-08-31T19:05:52.095Z,69.20
2018-08-31T19:08:25.151Z,69.24
2018-08-31T19:10:59.272Z,69.33
2018-08-31T19:13:32.397Z,70.06
2018-08-31T19:16:04.369Z,70.04
2018-08-31T19:18:37.205Z,69.66
2018-08-31T19:21:09.355Z,70.19
2018-08-31T19:23:42.183Z,70.18
2018-08-31T19:26:14.791Z,70.79
2018-08-31T19:28:48.821Z,70.54
2018-08-31T19:31:22.158Z,70.96
2018-08-31T19:33:54.999Z,71.02
2018-08-31T19:36:30.080Z,70.96
2018-08-31T19:39:05.383Z,71.46
2018-08-31T19:41:40.143Z,71.15
2018-08-31T19:44:14.031Z,71.95
2018-08-31T19:46:48.180Z,71.99
2018-08-31T19:49:22.223Z,72.49
2018-08-31T19:51:57.378Z,72.81
2018-08-31T19:54:29.940Z,72.47
2018-08-31T19:57:03.528Z,72.76
2018-08-31T19:59:39.434Z,73.36
2018-08-31T20:02:12.463Z,73.72
2018-08-31T20:04:45.261Z,73.25
2018-08-31T20:07:18.610Z,73.50
2018-08-31T20:09:50.430Z,73.45
2018-08-31T20:12:22.603Z,73.56
2018-08-31T20:14:54.852Z,73.71
2018-08-31T20:17:26.789Z,73.48
2018-08-31T20:19:59.166Z,73.43
2018-08-31T20:22:32.248Z,73.22
2018-08-31T20:25:06.522Z,73.10
2018-08-31T20:27:38.401Z,73.17
2018-08-31T20:30:11.590Z,72.64
2018-08-31T20:32:43.416Z,73.02
2018-08-31T20:35:15.374Z,73.43
2018-08-31T20:37:47.470Z,73.37
2018-08-31T20:40:19.476Z,73.16
2018-08-31T20:42:51.117Z,73.15
2018-08-31T20:45:23.169Z,73.48
2018-08-31T20:47:55.409Z,73.00
2018-08-31T20:50:28.496Z,73.49
2018-08-31T20:53:03.123Z,73.76
2018-08-31T20:55:35.541Z,73.51
2018-08-31T20:58:08.884Z,73.69
2018-08-31T21:00:40.855Z,73.33
2018-08-31T21:03:13.868Z,73.10
2018-08-31T21:05:46.284Z,73.38
2018-08-31T21:08:19.037Z,73.45
2018-08-31T21:10:51.378Z,73.71
2018-08-31T21:13:24.701Z,74.02
2018-08-31T21:15:56.785Z,74.42
2018-08-31T21:18:28.471Z,75.86
2018-08-31T21:21:01.030Z,76.06
2018-08-31T21:23:33.063Z,76.12
2018-08-31T21:26:04.691Z,76.14
2018-08-31T21:28:36.815Z,76.17
2018-08-31T21:31:08.571Z,74.95
2018-08-31T21:33:40.096Z,74.52
2018-08-31T21:36:10.981Z,74.52
2018-08-31T21:38:41.772Z,73.84
2018-08-31T21:41:12.598Z,74.54
2018-08-31T21:43:43.730Z,75.75
2018-08-31T21:46:14.698Z,76.07
2018-08-31T21:48:45.422Z,76.20
2018-08-31T21:51:16.369Z,75.88
2018-08-31T21:53:48.224Z,74.93
2018-08-31T21:56:19.125Z,74.84
2018-08-31T21:58:51.020Z,73.95
2018-08-31T22:01:26.729Z,73.96
2018-08-31T22:03:57.471Z,74.12
2018-08-31T22:06:28.170Z,74.52
2018-08-31T22:08:58.966Z,74.80
2018-08-31T22:11:29.769Z,74.33
2018-08-31T22:14:00.762Z,74.65
2018-08-31T22:16:31.878Z,74.66
2018-08-31T22:19:03.460Z,74.67
2018-08-31T22:21:38.606Z,74.79
2018-08-31T22:24:09.011Z,74.81
2018-08-31T22:26:40.311Z,75.35
2018-08-31T22:29:11.031Z,75.16
2018-08-31T22:31:42.002Z,75.86
2018-08-31T22:34:13.342Z,77.02
2018-08-31T22:36:44.303Z,77.39
2018-08-31T22:39:15.203Z,77.42
2018-08-31T22:41:46.137Z,78.17
2018-08-31T22:44:16.744Z,77.93
2018-08-31T22:46:47.433Z,76.84
2018-08-31T22:49:18.096Z,76.86
2018-08-31T22:51:49.075Z,76.85
2018-08-31T22:54:19.735Z,76.31
2018-08-31T22:56:50.435Z,76.73
2018-08-31T22:59:21.037Z,76.79
2018-08-31T23:01:51.527Z,76.96
2018-08-31T23:04:23.727Z,77.46
2018-08-31T23:06:54.353Z,78.05
2018-08-31T23:09:26.088Z,78.45
2018-08-31T23:11:56.635Z,78.28
2018-08-31T23:14:27.196Z,78.17
2018-08-31T23:16:57.782Z,77.96
2018-08-31T23:19:28.613Z,77.97
2018-08-31T23:21:59.590Z,78.28
2018-08-31T23:24:30.254Z,78.50
2018-08-31T23:27:00.838Z,79.18
2018-08-31T23:29:31.971Z,79.12
2018-08-31T23:32:03.202Z,79.28
2018-08-31T23:34:33.859Z,79.33
2018-08-31T23:37:04.377Z,80.06
2018-08-31T23:39:34.844Z,80.68
2018-08-31T23:42:05.290Z,80.85
2018-08-31T23:44:35.740Z,80.90
2018-08-31T23:47:06.929Z,81.43
2018-08-31T23:49:37.593Z,81.32
2018-08-31T23:52:08.249Z,80.75
2018-08-31T23:54:38.747Z,81.04
2018-08-31T23:57:10.672Z,80.92
2018-08-31T23:59:41.323Z,80.79
